Time;durP1;ratioP1;P1;durP2;ratioP2;P2;SDS_P1;SDS_P2;PMS_P1;PMS_P2;Temp;Humidity;BMP_temperature;BMP_pressure;BME280_temperature;BME280_humidity;BME280_pressure;Samples;Min_cycle;Max_cycle;Signal;HPM_P1;HPM_P2
2021/05/28 00:01:48;;;;;;;8.57;3.10;;;9.30;99.90;;;-146.41;100.00;57768.22;5124215;27;20047;-66
2021/05/28 00:04:15;;;;;;;4.28;2.95;;;9.30;99.90;;;-146.41;100.00;57768.22;5126575;27;20039;-66
2021/05/28 00:06:42;;;;;;;7.43;3.50;;;9.30;99.90;;;-146.41;100.00;57768.22;5122487;27;20039;-66
2021/05/28 00:09:09;;;;;;;7.65;2.80;;;9.30;99.90;;;-146.41;100.00;57768.22;5111907;27;20092;-66
2021/05/28 00:11:36;;;;;;;4.70;2.65;;;9.30;99.90;;;-146.41;100.00;57768.22;5125934;27;20039;-66
2021/05/28 00:14:03;;;;;;;11.68;3.70;;;9.30;99.90;;;-146.41;100.00;57768.22;5125026;27;20042;-66
2021/05/28 00:16:30;;;;;;;8.93;3.15;;;9.40;99.90;;;-146.41;100.00;57768.22;5129402;27;20092;-66
2021/05/28 00:18:57;;;;;;;7.45;3.20;;;9.30;99.90;;;-146.41;100.00;57768.22;5102926;28;20036;-66
2021/05/28 00:21:24;;;;;;;6.10;3.10;;;9.40;99.90;;;-146.41;100.00;57768.22;5114710;27;20571;-66
2021/05/28 00:23:51;;;;;;;6.47;2.88;;;9.40;99.90;;;-146.41;100.00;57768.22;5124881;27;20051;-66
2021/05/28 00:26:18;;;;;;;8.73;2.95;;;9.50;99.90;;;-146.41;100.00;57768.22;5129056;27;20096;-66
2021/05/28 00:28:48;;;;;;;8.15;3.10;;;9.40;99.90;;;-146.41;100.00;57768.22;5121495;27;20043;-66
2021/05/28 00:31:18;;;;;;;9.55;3.25;;;9.40;99.90;;;-146.41;100.00;57768.22;5116439;27;20101;-66
2021/05/28 00:33:46;;;;;;;6.72;3.40;;;9.30;99.90;;;-146.41;100.00;57768.22;5105681;27;20031;-66
2021/05/28 00:36:13;;;;;;;6.40;3.03;;;9.30;99.90;;;-146.41;100.00;57768.22;5128616;27;20111;-66
2021/05/28 00:38:41;;;;;;;6.53;2.67;;;9.20;99.90;;;-146.41;100.00;57768.22;5102733;27;20437;-66
2021/05/28 00:41:08;;;;;;;7.15;2.72;;;9.20;99.90;;;-146.41;100.00;57768.22;5130622;27;20035;-66
2021/05/28 00:43:35;;;;;;;6.38;2.63;;;9.00;99.90;;;-146.41;100.00;57768.22;5101230;27;20098;-66
2021/05/28 00:46:03;;;;;;;6.18;2.85;;;9.00;99.90;;;-146.41;100.00;57768.22;5129133;27;20096;-66
2021/05/28 00:48:30;;;;;;;7.30;2.92;;;9.00;99.90;;;-146.41;100.00;57768.22;5118884;27;20088;-66
2021/05/28 00:50:57;;;;;;;5.15;2.55;;;9.00;99.90;;;-146.41;100.00;57768.22;5113517;27;20039;-66
2021/05/28 00:53:27;;;;;;;4.70;2.30;;;8.90;99.90;;;-146.41;100.00;57768.22;5121141;27;20088;-66
2021/05/28 00:55:56;;;;;;;9.15;3.13;;;8.90;99.90;;;-146.41;100.00;57768.22;5126270;27;20158;-66
2021/05/28 00:58:24;;;;;;;6.00;2.55;;;8.80;99.90;;;-146.41;100.00;57768.22;5099536;27;20098;-65
2021/05/28 01:00:51;;;;;;;9.63;3.08;;;8.80;99.90;;;-146.41;100.00;57768.22;5111166;27;20051;-67
2021/05/28 01:03:19;;;;;;;9.40;2.85;;;8.70;99.90;;;-146.41;100.00;57768.22;5103134;27;20047;-67
2021/05/28 01:05:47;;;;;;;5.15;2.47;;;8.70;99.90;;;-146.41;100.00;57768.22;5130411;27;20404;-68
2021/05/28 01:08:15;;;;;;;7.80;2.70;;;8.70;99.90;;;-146.41;100.00;57768.22;5125089;27;20097;-67
2021/05/28 01:10:43;;;;;;;4.68;2.25;;;8.80;99.90;;;-146.41;100.00;57768.22;5093806;27;20058;-67
2021/05/28 01:13:11;;;;;;;8.10;3.15;;;8.90;99.90;;;-146.41;100.00;57768.22;5108187;28;20104;-68
2021/05/28 01:15:39;;;;;;;7.38;3.15;;;8.80;99.90;;;-146.41;100.00;57768.22;5124739;27;20044;-67
2021/05/28 01:18:07;;;;;;;7.93;2.90;;;8.80;99.90;;;-146.41;100.00;57768.22;5111838;27;20084;-67
2021/05/28 01:20:35;;;;;;;7.82;3.17;;;8.80;99.90;;;-146.41;100.00;57768.22;5091297;27;20492;-67
2021/05/28 01:23:05;;;;;;;4.70;2.40;;;8.80;99.90;;;-146.41;100.00;57768.22;5086588;27;20039;-67
2021/05/28 01:25:33;;;;;;;5.20;2.50;;;9.00;99.90;;;-146.41;100.00;57768.22;5109724;28;20108;-67
2021/05/28 01:28:00;;;;;;;4.93;2.88;;;9.00;99.90;;;-146.41;100.00;57768.22;5100088;28;20071;-67
2021/05/28 01:30:28;;;;;;;8.23;3.65;;;8.90;99.90;;;-146.41;100.00;57768.22;5129868;27;20268;-67
2021/05/28 01:32:55;;;;;;;8.60;3.65;;;8.80;99.90;;;-146.41;100.00;57768.22;5107742;28;20035;-67
2021/05/28 01:35:23;;;;;;;9.52;3.88;;;8.80;99.90;;;-146.41;100.00;57768.22;5128320;27;20099;-68
2021/05/28 01:37:51;;;;;;;13.68;4.32;;;8.80;99.90;;;-146.41;100.00;57768.22;5102768;28;20046;-67
2021/05/28 01:40:21;;;;;;;11.02;4.07;;;8.80;99.90;;;-146.41;100.00;57768.22;5103581;28;20039;-67
2021/05/28 01:42:50;;;;;;;10.82;4.40;;;8.80;99.90;;;-146.41;100.00;57768.22;5109041;28;20042;-67
2021/05/28 01:45:17;;;;;;;8.80;4.15;;;8.90;99.90;;;-146.41;100.00;57768.22;5098517;28;20055;-70
2021/05/28 01:47:44;;;;;;;10.45;4.28;;;9.00;99.90;;;-146.41;100.00;57768.22;5116759;28;20043;-67
2021/05/28 01:50:13;;;;;;;9.18;3.30;;;9.10;99.90;;;-146.41;100.00;57768.22;5122465;28;20057;-67
2021/05/28 01:52:41;;;;;;;8.45;3.72;;;9.20;99.90;;;-146.41;100.00;57768.22;5082247;28;20338;-67
2021/05/28 01:55:14;;;;;;;13.60;4.40;;;9.30;99.90;;;-146.41;100.00;57768.22;5075732;28;20080;-67
2021/05/28 01:57:42;;;;;;;9.80;4.45;;;9.40;99.90;;;-146.41;100.00;57768.22;5128280;28;20047;-67
2021/05/28 02:00:14;;;;;;;9.57;4.20;;;9.50;99.90;;;-146.41;100.00;57768.22;5128950;28;20095;-67
2021/05/28 02:02:41;;;;;;;6.80;3.80;;;9.50;99.90;;;-146.41;100.00;57768.22;5109868;28;20043;-67
2021/05/28 02:05:10;;;;;;;10.18;4.03;;;9.60;99.90;;;-146.41;100.00;57768.22;5128318;28;20130;-67
2021/05/28 02:07:38;;;;;;;13.82;4.50;;;9.60;99.90;;;-146.41;100.00;57768.22;5105151;28;20092;-67
2021/05/28 02:10:06;;;;;;;17.60;5.30;;;9.60;99.90;;;-146.41;100.00;57768.22;5129466;28;20031;-67
2021/05/28 02:12:34;;;;;;;14.23;5.10;;;9.50;99.90;;;-146.41;100.00;57768.22;5110025;28;20500;-67
2021/05/28 02:15:01;;;;;;;9.55;4.75;;;9.40;99.90;;;-146.41;100.00;57768.22;5107756;28;20093;-67
2021/05/28 02:17:29;;;;;;;11.25;5.65;;;9.30;99.90;;;-146.41;100.00;57768.22;5111177;28;20039;-67
2021/05/28 02:19:57;;;;;;;11.88;5.05;;;9.20;99.90;;;-146.41;100.00;57768.22;5094278;28;20688;-67
2021/05/28 02:22:24;;;;;;;14.13;5.72;;;9.20;99.90;;;-146.41;100.00;57768.22;5116135;28;20449;-67
2021/05/28 02:24:51;;;;;;;14.48;5.60;;;9.20;99.90;;;-146.41;100.00;57768.22;5109154;28;20122;-67
2021/05/28 02:27:19;;;;;;;11.75;5.90;;;9.10;99.90;;;-146.41;100.00;57768.22;5128543;28;20051;-68
2021/05/28 02:29:50;;;;;;;13.65;5.20;;;9.00;99.90;;;-146.41;100.00;57768.22;5106095;28;20046;-67
2021/05/28 02:32:17;;;;;;;14.77;5.75;;;9.00;99.90;;;-146.41;100.00;57768.22;5097930;27;20100;-67
2021/05/28 02:34:44;;;;;;;14.95;5.32;;;9.00;99.90;;;-146.41;100.00;57768.22;5101247;28;20182;-68
2021/05/28 02:37:11;;;;;;;10.65;5.03;;;9.00;99.90;;;-146.41;100.00;57768.22;5114434;27;20035;-67
2021/05/28 02:39:38;;;;;;;9.48;5.13;;;9.10;99.90;;;-146.41;100.00;57768.22;5125385;27;20054;-67
2021/05/28 02:42:05;;;;;;;9.13;4.50;;;9.20;99.90;;;-146.41;100.00;57768.22;5105265;28;20362;-67
2021/05/28 02:44:32;;;;;;;9.60;5.20;;;9.20;99.90;;;-146.41;100.00;57768.22;5109455;28;20092;-67
2021/05/28 02:46:59;;;;;;;12.68;5.30;;;9.30;99.90;;;-146.41;100.00;57768.22;5125059;27;20084;-67
2021/05/28 02:49:27;;;;;;;14.50;5.78;;;9.30;99.90;;;-146.41;100.00;57768.22;5132282;27;20059;-67
2021/05/28 02:51:54;;;;;;;10.38;4.45;;;9.30;99.90;;;-146.41;100.00;57768.22;5132736;27;20076;-67
2021/05/28 02:54:21;;;;;;;9.75;4.35;;;9.40;99.90;;;-146.41;100.00;57768.22;5113244;27;20048;-67
2021/05/28 02:56:49;;;;;;;10.18;4.32;;;9.40;99.90;;;-146.41;100.00;57768.22;5131624;27;20367;-68
2021/05/28 02:59:16;;;;;;;9.02;4.30;;;9.40;99.90;;;-146.41;100.00;57768.22;5108735;27;20263;-67
2021/05/28 03:01:43;;;;;;;13.20;5.55;;;9.30;99.90;;;-146.41;100.00;57768.22;5111238;27;20092;-67
2021/05/28 03:04:09;;;;;;;12.60;4.75;;;9.20;99.90;;;-146.41;100.00;57768.22;5129916;27;20078;-67
2021/05/28 03:06:36;;;;;;;12.80;5.05;;;9.10;99.90;;;-146.41;100.00;57768.22;5087097;27;20039;-67
2021/05/28 03:09:04;;;;;;;11.63;5.40;;;9.00;99.90;;;-146.41;100.00;57768.22;5125038;27;20489;-67
2021/05/28 03:11:33;;;;;;;10.15;4.45;;;9.00;99.90;;;-146.41;100.00;57768.22;5124265;27;20047;-68
2021/05/28 03:14:00;;;;;;;13.70;5.40;;;8.80;99.90;;;-146.41;100.00;57768.22;5101202;27;20488;-68
2021/05/28 03:16:28;;;;;;;17.17;5.40;;;8.70;99.90;;;-146.41;100.00;57768.22;5084783;27;20043;-67
2021/05/28 03:19:01;;;;;;;10.13;4.85;;;8.60;99.90;;;-146.41;100.00;57768.22;5106180;27;20381;-67
2021/05/28 03:24:03;;;;;;;9.13;4.35;;;8.40;99.90;;;-146.41;100.00;57768.22;5125623;27;20108;-67
2021/05/28 03:26:32;;;;;;;8.55;5.00;;;8.40;99.90;;;-146.41;100.00;57768.22;5107971;27;20078;-67
2021/05/28 03:29:01;;;;;;;12.05;4.78;;;8.30;99.90;;;-146.41;100.00;57768.22;5129221;27;20107;-68
2021/05/28 03:31:28;;;;;;;13.50;5.15;;;8.30;99.90;;;-146.41;100.00;57768.22;5109871;27;20526;-68
2021/05/28 03:33:55;;;;;;;10.52;5.80;;;8.20;99.90;;;-146.41;100.00;57768.22;5132046;27;20416;-67
2021/05/28 03:36:22;;;;;;;11.20;5.10;;;8.00;99.90;;;-146.41;100.00;57768.22;5123439;27;20070;-67
2021/05/28 03:38:49;;;;;;;11.00;5.20;;;7.90;99.90;;;-146.41;100.00;57768.22;5128146;27;20039;-67
2021/05/28 03:41:16;;;;;;;13.90;6.38;;;7.90;99.90;;;-146.41;100.00;57768.22;5125404;27;20561;-67
2021/05/28 03:43:43;;;;;;;13.07;6.45;;;7.90;99.90;;;-146.41;100.00;57768.22;5125628;27;20108;-68
2021/05/28 03:46:10;;;;;;;11.55;5.50;;;7.80;99.90;;;-146.41;100.00;57768.22;5129326;27;20035;-68
2021/05/28 03:48:37;;;;;;;16.45;5.85;;;7.70;99.90;;;-146.41;100.00;57768.22;5132682;27;20046;-67
2021/05/28 03:51:04;;;;;;;12.60;6.03;;;7.70;99.90;;;-146.41;100.00;57768.22;5126691;27;20561;-67
2021/05/28 03:53:31;;;;;;;18.15;6.65;;;7.60;99.90;;;-146.41;100.00;57768.22;5121854;27;20088;-67
2021/05/28 03:55:59;;;;;;;20.08;7.20;;;7.60;99.90;;;-146.41;100.00;57768.22;5129914;27;20039;-67
2021/05/28 03:58:26;;;;;;;15.30;6.50;;;7.50;99.90;;;-146.41;100.00;57768.22;5111399;27;20047;-67
2021/05/28 04:00:53;;;;;;;14.05;6.40;;;7.50;99.90;;;-146.41;100.00;57768.22;5123141;27;20035;-67
2021/05/28 04:03:20;;;;;;;12.07;6.10;;;7.50;99.90;;;-146.41;100.00;57768.22;5124186;27;20111;-68
2021/05/28 04:05:47;;;;;;;17.65;6.82;;;7.50;99.90;;;-146.41;100.00;57768.22;5125847;27;20039;-67
2021/05/28 04:08:14;;;;;;;22.15;7.03;;;7.40;99.90;;;-146.41;100.00;57768.22;5131628;27;20047;-67
2021/05/28 04:10:41;;;;;;;10.32;6.50;;;7.30;99.90;;;-146.41;100.00;57768.22;5126218;27;20051;-67
2021/05/28 04:13:08;;;;;;;15.13;7.25;;;7.30;99.90;;;-146.41;100.00;57768.22;5111689;27;20068;-68
2021/05/28 04:15:35;;;;;;;16.17;7.78;;;7.30;99.90;;;-146.41;100.00;57768.22;5129314;27;20035;-67
2021/05/28 04:18:02;;;;;;;13.70;7.65;;;7.40;99.90;;;-146.41;100.00;57768.22;5120772;27;20039;-67
2021/05/28 04:20:29;;;;;;;20.05;7.97;;;7.40;99.90;;;-146.41;100.00;57768.22;5129054;27;20047;-67
2021/05/28 04:22:56;;;;;;;14.10;7.28;;;7.40;99.90;;;-146.41;100.00;57768.22;5127602;27;20092;-67
2021/05/28 04:25:23;;;;;;;12.65;7.25;;;7.40;99.90;;;-146.41;100.00;57768.22;5125245;27;20047;-67
2021/05/28 04:27:50;;;;;;;16.50;7.70;;;7.50;99.90;;;-146.41;100.00;57768.22;5123090;27;20039;-67
2021/05/28 04:30:23;;;;;;;17.55;8.00;;;7.50;99.90;;;-146.41;100.00;57768.22;5129602;27;20040;-67
2021/05/28 04:32:53;;;;;;;13.90;8.13;;;7.60;99.90;;;-146.41;100.00;57768.22;5105927;28;20043;-67
2021/05/28 04:35:21;;;;;;;17.73;8.02;;;7.60;99.90;;;-146.41;100.00;57768.22;5122426;27;20039;-67
2021/05/28 04:37:48;;;;;;;15.93;8.15;;;7.60;99.90;;;-146.41;100.00;57768.22;5129372;27;20043;-68
2021/05/28 04:40:18;;;;;;;23.02;8.52;;;7.60;99.90;;;-146.41;100.00;57768.22;5128230;27;20039;-67
2021/05/28 04:42:45;;;;;;;11.65;7.10;;;7.60;99.90;;;-146.41;100.00;57768.22;5113408;27;20043;-67
2021/05/28 04:45:13;;;;;;;18.75;8.15;;;7.80;99.90;;;-146.41;100.00;57768.22;5124495;27;20179;-67
2021/05/28 04:47:40;;;;;;;13.10;7.60;;;7.90;99.90;;;-146.41;100.00;57768.22;5092413;27;20059;-68
2021/05/28 04:50:08;;;;;;;13.13;7.00;;;8.00;99.90;;;-146.41;100.00;57768.22;5113109;27;20183;-68
2021/05/28 04:52:34;;;;;;;13.27;7.53;;;8.10;99.90;;;-146.41;100.00;57768.22;5124670;27;20059;-66
2021/05/28 04:55:03;;;;;;;14.70;7.32;;;8.10;99.90;;;-146.41;100.00;57768.22;5126504;27;20216;-66
2021/05/28 04:57:30;;;;;;;17.98;7.53;;;8.20;99.90;;;-146.41;100.00;57768.22;5114295;27;20055;-66
2021/05/28 04:59:57;;;;;;;18.45;8.00;;;8.30;99.90;;;-146.41;100.00;57768.22;5113224;27;20715;-68
2021/05/28 05:02:24;;;;;;;15.10;8.85;;;8.40;99.90;;;-146.41;100.00;57768.22;5117108;27;20039;-68
2021/05/28 05:04:51;;;;;;;15.32;8.93;;;8.60;99.90;;;-146.41;100.00;57768.22;5127908;27;20039;-68
2021/05/28 05:07:18;;;;;;;17.52;8.80;;;8.50;99.90;;;-146.41;100.00;57768.22;5124614;27;20031;-68
2021/05/28 05:09:45;;;;;;;18.38;8.18;;;8.60;99.90;;;-146.41;100.00;57768.22;5127571;27;20092;-68
2021/05/28 05:12:12;;;;;;;17.52;8.63;;;8.70;99.90;;;-146.41;100.00;57768.22;5128759;27;20084;-68
2021/05/28 05:14:39;;;;;;;13.02;7.65;;;8.80;99.90;;;-146.41;100.00;57768.22;5130723;27;20099;-67
2021/05/28 05:17:06;;;;;;;18.17;8.38;;;8.90;99.90;;;-146.41;100.00;57768.22;5129009;27;20091;-67
2021/05/28 05:19:33;;;;;;;13.43;7.20;;;8.90;99.90;;;-146.41;100.00;57768.22;5109382;27;20523;-68
2021/05/28 05:22:00;;;;;;;16.25;6.78;;;9.10;99.90;;;-146.41;100.00;57768.22;5120530;27;20447;-68
2021/05/28 05:24:27;;;;;;;20.70;9.07;;;9.20;99.90;;;-146.41;100.00;57768.22;5129758;27;20043;-68
2021/05/28 05:26:54;;;;;;;14.13;7.30;;;9.10;99.90;;;-146.41;100.00;57768.22;5122086;27;20148;-67
2021/05/28 05:29:21;;;;;;;11.43;7.15;;;9.20;99.90;;;-146.41;100.00;57768.22;5100788;28;20051;-67
2021/05/28 05:31:48;;;;;;;16.98;7.13;;;9.20;99.90;;;-146.41;100.00;57768.22;5124417;27;20103;-67
2021/05/28 05:34:15;;;;;;;9.88;6.32;;;9.30;99.90;;;-146.41;100.00;57768.22;5104767;28;20465;-67
2021/05/28 05:36:42;;;;;;;18.20;7.32;;;9.50;99.90;;;-146.41;100.00;57768.22;5126121;27;20043;-68
2021/05/28 05:39:09;;;;;;;13.73;6.90;;;9.60;99.90;;;-146.41;100.00;57768.22;5117690;28;20093;-68
2021/05/28 05:41:36;;;;;;;19.23;7.18;;;9.80;99.90;;;-146.41;100.00;57768.22;5125206;28;20051;-68
2021/05/28 05:44:04;;;;;;;17.13;7.85;;;10.00;99.90;;;-146.41;100.00;57768.22;5123982;28;20047;-68
2021/05/28 05:46:31;;;;;;;17.13;7.32;;;10.00;99.90;;;-146.41;100.00;57768.22;5110265;28;20084;-67
2021/05/28 05:48:58;;;;;;;14.98;6.68;;;10.10;99.90;;;-146.41;100.00;57768.22;5126345;28;20043;-68
2021/05/28 05:51:25;;;;;;;16.20;6.75;;;10.30;99.90;;;-146.41;100.00;57768.22;5120467;28;21524;-68
2021/05/28 05:53:52;;;;;;;11.45;6.15;;;10.30;99.90;;;-146.41;100.00;57768.22;5128613;28;20394;-67
2021/05/28 05:56:20;;;;;;;12.90;7.05;;;10.40;99.90;;;-146.41;100.00;57768.22;5121771;28;20043;-67
2021/05/28 05:58:47;;;;;;;12.82;6.28;;;10.40;99.90;;;-146.41;100.00;57768.22;5116911;28;20101;-68
2021/05/28 06:01:14;;;;;;;11.88;6.63;;;10.60;99.90;;;-146.41;100.00;57768.22;5125337;28;20082;-67
2021/05/28 06:03:41;;;;;;;14.73;6.63;;;10.60;99.90;;;-146.41;100.00;57768.22;5106633;28;20047;-68
2021/05/28 06:06:08;;;;;;;12.52;7.68;;;10.70;99.90;;;-146.41;100.00;57768.22;5124140;27;20093;-67
2021/05/28 06:08:35;;;;;;;11.93;6.70;;;10.70;99.90;;;-146.41;100.00;57768.22;5126874;27;20101;-68
2021/05/28 06:11:02;;;;;;;23.85;6.97;;;10.70;99.90;;;-146.41;100.00;57768.22;5116557;27;20040;-68
2021/05/28 06:13:29;;;;;;;16.02;7.43;;;10.80;99.90;;;-146.41;100.00;57768.22;5118241;27;20039;-68
2021/05/28 06:15:56;;;;;;;13.65;8.05;;;10.80;99.90;;;-146.41;100.00;57768.22;5128659;27;20055;-68
2021/05/28 06:18:23;;;;;;;16.83;8.93;;;10.90;99.90;;;-146.41;100.00;57768.22;5129642;27;20047;-68
2021/05/28 06:20:50;;;;;;;23.35;10.82;;;10.80;99.90;;;-146.41;100.00;57768.22;5113476;27;20039;-67
2021/05/28 06:23:17;;;;;;;18.05;11.55;;;10.70;99.90;;;-146.41;100.00;57768.22;5131279;27;20060;-68
2021/05/28 06:25:47;;;;;;;17.23;10.13;;;10.60;99.90;;;-146.41;100.00;57768.22;5125856;27;20455;-67
2021/05/28 06:28:15;;;;;;;19.35;10.52;;;10.60;99.90;;;-146.41;100.00;57768.22;5097578;27;20081;-68
2021/05/28 06:30:42;;;;;;;18.77;9.70;;;10.70;99.90;;;-146.41;100.00;57768.22;5125951;27;20105;-68
2021/05/28 06:33:09;;;;;;;23.15;10.82;;;10.90;99.90;;;-146.41;100.00;57768.22;5127871;27;20035;-67
2021/05/28 06:35:38;;;;;;;15.35;9.77;;;11.00;99.90;;;-146.41;100.00;57768.22;5130590;27;20077;-67
2021/05/28 06:38:05;;;;;;;16.52;9.55;;;11.00;99.90;;;-146.41;100.00;57768.22;5100234;27;20035;-67
2021/05/28 06:40:33;;;;;;;19.83;10.18;;;11.00;99.90;;;-146.41;100.00;57768.22;5101701;28;20039;-68
2021/05/28 06:43:00;;;;;;;18.23;9.40;;;11.20;99.90;;;-146.41;100.00;57768.22;5117269;27;20377;-67
2021/05/28 06:45:27;;;;;;;16.58;9.95;;;11.40;99.90;;;-146.41;100.00;57768.22;5131042;27;20122;-67
2021/05/28 06:47:54;;;;;;;20.88;11.32;;;11.10;99.90;;;-146.41;100.00;57768.22;5125155;27;20055;-68
2021/05/28 06:50:21;;;;;;;20.15;10.30;;;11.20;99.90;;;-146.41;100.00;57768.22;5114195;27;20104;-68
2021/05/28 06:52:49;;;;;;;21.90;10.57;;;11.40;99.90;;;-146.41;100.00;57768.22;5121562;27;20035;-68
2021/05/28 06:55:16;;;;;;;14.75;9.73;;;11.40;99.90;;;-146.41;100.00;57768.22;5129352;27;20082;-68
2021/05/28 06:57:43;;;;;;;16.73;9.45;;;11.70;99.90;;;-146.41;100.00;57768.22;5126949;27;20039;-68
2021/05/28 07:00:11;;;;;;;15.60;9.00;;;11.80;99.90;;;-146.41;100.00;57768.22;5101854;28;20088;-68
2021/05/28 07:02:38;;;;;;;16.50;8.48;;;12.00;99.90;;;-146.41;100.00;57768.22;5118425;27;20069;-68
2021/05/28 07:05:07;;;;;;;15.07;8.48;;;12.30;99.90;;;-146.41;100.00;57768.22;5130040;27;20057;-68
2021/05/28 07:07:34;;;;;;;16.98;8.00;;;12.80;99.90;;;-146.41;100.00;57768.22;5131022;27;20524;-66
2021/05/28 07:10:03;;;;;;;12.05;8.25;;;12.80;99.90;;;-146.41;100.00;57768.22;5130053;27;20061;-65
2021/05/28 07:12:30;;;;;;;11.10;7.55;;;12.80;99.90;;;-146.41;100.00;57768.22;5130735;27;20047;-67
2021/05/28 07:14:56;;;;;;;14.20;7.15;;;12.70;99.90;;;-146.41;100.00;57768.22;5116821;27;20047;-68
2021/05/28 07:17:24;;;;;;;14.13;6.65;;;12.60;99.90;;;-146.41;100.00;57768.22;5129894;27;20454;-67
2021/05/28 07:19:51;;;;;;;13.73;6.72;;;12.90;99.90;;;-146.41;100.00;57768.22;5119519;27;20067;-67
2021/05/28 07:22:17;;;;;;;14.23;7.90;;;13.00;99.90;;;-146.41;100.00;57768.22;5121418;27;20039;-68
2021/05/28 07:24:44;;;;;;;15.82;7.38;;;12.80;99.90;;;-146.41;100.00;57768.22;5129355;27;20047;-67
2021/05/28 07:27:12;;;;;;;11.63;6.25;;;13.00;99.90;;;-146.41;100.00;57768.22;5125024;27;20089;-68
2021/05/28 07:29:39;;;;;;;14.63;6.30;;;13.10;99.90;;;-146.41;100.00;57768.22;5120532;27;20529;-66
2021/05/28 07:32:06;;;;;;;9.88;6.10;;;13.10;99.90;;;-146.41;100.00;57768.22;5130776;27;20096;-66
2021/05/28 07:34:34;;;;;;;10.80;5.60;;;13.10;99.90;;;-146.41;100.00;57768.22;5117069;27;20046;-66
2021/05/28 07:37:01;;;;;;;11.48;5.50;;;13.20;99.90;;;-146.41;100.00;57768.22;5129904;27;20580;-66
2021/05/28 07:39:28;;;;;;;8.32;4.90;;;13.70;99.90;;;-146.41;100.00;57768.22;5099961;27;20039;-66
2021/05/28 07:41:55;;;;;;;12.13;5.70;;;13.70;99.90;;;-146.41;100.00;57768.22;5127617;27;20035;-67
2021/05/28 07:44:22;;;;;;;11.68;6.20;;;13.70;99.90;;;-146.41;100.00;57768.22;5123303;27;20043;-66
2021/05/28 07:46:50;;;;;;;10.98;6.78;;;13.50;99.90;;;-146.41;100.00;57768.22;5123091;27;20055;-66
2021/05/28 07:49:16;;;;;;;13.00;6.65;;;13.20;99.90;;;-146.41;100.00;57768.22;5124119;27;20051;-67
2021/05/28 07:51:44;;;;;;;12.48;6.28;;;13.20;99.90;;;-146.41;100.00;57768.22;5117562;27;20070;-66
2021/05/28 07:54:11;;;;;;;11.48;6.30;;;13.40;99.90;;;-146.41;100.00;57768.22;5120650;27;20031;-66
2021/05/28 07:56:38;;;;;;;10.13;6.30;;;13.80;99.90;;;-146.41;100.00;57768.22;5127742;27;20108;-66
2021/05/28 07:59:06;;;;;;;11.93;5.15;;;14.00;99.90;;;-146.41;100.00;57768.22;5108128;27;20055;-67
2021/05/28 08:01:33;;;;;;;8.90;5.50;;;14.30;99.90;;;-146.41;100.00;57768.22;5107880;27;20225;-66
2021/05/28 08:04:01;;;;;;;9.88;4.55;;;14.40;99.90;;;-146.41;100.00;57768.22;5126901;27;20395;-66
2021/05/28 08:06:28;;;;;;;8.70;3.53;;;14.50;99.90;;;-146.41;100.00;57768.22;5118284;27;20035;-67
2021/05/28 08:08:55;;;;;;;9.88;5.22;;;14.50;99.90;;;-146.41;100.00;57768.22;5127843;27;20087;-66
2021/05/28 08:11:22;;;;;;;10.48;4.82;;;14.10;99.90;;;-146.41;100.00;57768.22;5130971;27;20104;-66
2021/05/28 08:13:49;;;;;;;7.15;4.35;;;14.20;99.90;;;-146.41;100.00;57768.22;5129062;27;20059;-66
2021/05/28 08:16:16;;;;;;;13.93;5.15;;;14.20;99.90;;;-146.41;100.00;57768.22;5108746;27;20051;-66
2021/05/28 08:18:43;;;;;;;7.35;3.78;;;14.10;99.90;;;-146.41;100.00;57768.22;5122663;27;20063;-67
2021/05/28 08:21:12;;;;;;;9.80;4.70;;;14.20;99.90;;;-146.41;100.00;57768.22;5122678;27;20039;-66
2021/05/28 08:23:40;;;;;;;12.27;3.67;;;14.00;99.90;;;-146.41;100.00;57768.22;5099669;27;20065;-66
2021/05/28 08:26:08;;;;;;;6.88;3.40;;;13.90;99.90;;;-146.41;100.00;57768.22;5100834;27;20044;-66
2021/05/28 08:28:35;;;;;;;9.88;4.30;;;14.00;99.90;;;-146.41;100.00;57768.22;5122757;27;20571;-67
2021/05/28 08:31:07;;;;;;;8.90;3.85;;;14.10;99.90;;;-146.41;100.00;57768.22;5110291;27;20066;-66
2021/05/28 08:33:35;;;;;;;10.55;3.60;;;14.20;99.90;;;-146.41;100.00;57768.22;5129108;27;20441;-66
2021/05/28 08:36:02;;;;;;;6.90;3.88;;;14.50;99.90;;;-146.41;100.00;57768.22;5123691;27;20043;-67
2021/05/28 08:38:29;;;;;;;8.30;3.50;;;14.70;99.90;;;-146.41;100.00;57768.22;5119979;27;20054;-66
2021/05/28 08:40:56;;;;;;;8.20;3.58;;;15.30;99.90;;;-146.41;100.00;57768.22;5116563;27;20460;-67
2021/05/28 08:43:23;;;;;;;6.20;3.65;;;15.60;99.90;;;-146.41;100.00;57768.22;5101191;27;20039;-67
2021/05/28 08:45:51;;;;;;;7.88;3.38;;;15.70;99.90;;;-146.41;100.00;57768.22;5126060;27;20495;-66
2021/05/28 08:48:19;;;;;;;7.80;3.40;;;15.30;99.90;;;-146.41;100.00;57768.22;5102748;27;20039;-66
2021/05/28 08:50:48;;;;;;;6.97;3.45;;;15.40;99.90;;;-146.41;100.00;57768.22;5101815;27;20137;-67
2021/05/28 08:53:16;;;;;;;6.68;2.85;;;16.10;99.90;;;-146.41;100.00;57768.22;5103590;27;20043;-67
2021/05/28 08:55:45;;;;;;;4.38;1.92;;;16.70;99.90;;;-146.41;100.00;57768.22;5125302;27;20500;-67
2021/05/28 08:58:19;;;;;;;5.65;2.28;;;16.70;99.90;;;-146.41;100.00;57768.22;5091598;28;20331;-67
2021/05/28 09:00:47;;;;;;;5.45;2.55;;;17.10;99.90;;;-146.41;100.00;57768.22;5107639;27;20093;-67
2021/05/28 09:03:30;;;;;;;4.97;2.08;;;17.00;99.90;;;-146.41;100.00;57768.22;5114954;27;20047;-67
2021/05/28 09:05:59;;;;;;;;;;;17.70;99.90;;;-146.41;100.00;57768.22;5124252;27;20040;-67
2021/05/28 09:08:29;;;;;;;4.32;1.67;;;18.60;99.90;;;-146.41;100.00;57768.22;5099856;27;19937;-67
2021/05/28 09:11:08;;;;;;;6.50;2.13;;;18.90;99.90;;;-146.41;100.00;57768.22;5110987;27;20092;-67
2021/05/28 09:13:51;;;;;;;4.45;2.05;;;18.30;99.90;;;-146.41;100.00;57768.22;5128443;27;20104;-67
2021/05/28 09:16:22;;;;;;;7.03;1.90;;;18.10;99.90;;;-146.41;100.00;57768.22;5098273;27;20065;-66
2021/05/28 09:18:58;;;;;;;4.10;1.63;;;17.40;99.90;;;-146.41;100.00;57768.22;5104031;27;20095;-66
2021/05/28 09:21:33;;;;;;;5.10;1.52;;;18.20;99.90;;;-146.41;100.00;57768.22;5122683;27;20054;-66
2021/05/28 09:24:03;;;;;;;5.22;1.50;;;19.20;99.90;;;-146.41;100.00;57768.22;5124897;27;20050;-66
2021/05/28 09:26:32;;;;;;;4.80;1.70;;;19.30;99.90;;;-146.41;100.00;57768.22;5106116;27;20063;-66
2021/05/28 09:29:01;;;;;;;3.47;1.20;;;19.20;99.90;;;-146.41;100.00;57768.22;5129952;27;20047;-66
2021/05/28 09:31:32;;;;;;;4.97;1.50;;;19.70;99.90;;;-146.41;100.00;57768.22;5103612;27;20092;-66
2021/05/28 09:34:00;;;;;;;3.67;1.33;;;19.00;99.90;;;-146.41;100.00;57768.22;5128632;27;20043;-66
2021/05/28 09:36:35;;;;;;;4.38;1.50;;;18.80;99.90;;;-146.41;100.00;57768.22;5104522;28;20421;-65
2021/05/28 09:39:11;;;;;;;4.18;1.02;;;18.90;99.90;;;-146.41;100.00;57768.22;5130063;28;20118;-66
2021/05/28 09:41:57;;;;;;;5.28;2.20;;;18.20;99.90;;;-146.41;100.00;57768.22;5119807;27;20077;-65
2021/05/28 09:44:31;;;;;;;6.03;2.22;;;17.00;99.90;;;-146.41;100.00;57768.22;5105097;28;20043;-65
2021/05/28 09:47:17;;;;;;;5.05;1.95;;;17.00;99.90;;;-146.41;100.00;57768.22;5101801;28;20043;-65
2021/05/28 09:49:49;;;;;;;4.15;2.08;;;17.20;99.90;;;-146.41;100.00;57768.22;5124778;28;20039;-68
2021/05/28 09:52:29;;;;;;;4.68;2.05;;;17.40;99.90;;;-146.41;100.00;57768.22;5101059;28;20035;-66
2021/05/28 09:55:10;;;;;;;6.78;2.35;;;17.00;99.90;;;-146.41;100.00;57768.22;5126372;27;20069;-66
2021/05/28 09:57:47;;;;;;;2.60;1.63;;;16.70;99.90;;;-146.41;100.00;57768.22;5122124;28;20039;-66
2021/05/28 10:00:31;;;;;;;4.10;2.00;;;16.50;99.90;;;-146.41;100.00;57768.22;5090556;28;20707;-66
2021/05/28 10:03:19;;;;;;;5.22;2.22;;;16.60;99.90;;;-146.41;100.00;57768.22;5124247;28;20035;-68
2021/05/28 10:05:58;;;;;;;3.67;1.33;;;17.70;99.90;;;-146.41;100.00;57768.22;5119972;27;20089;-66
2021/05/28 10:08:27;;;;;;;6.28;1.52;;;18.50;99.90;;;-146.41;100.00;57768.22;5095587;28;20130;-67